createdAt,value
2018-02-04T00:01:32.540Z,22.80
2018-02-04T00:03:59.148Z,22.83
2018-02-04T00:06:25.777Z,24.37
2018-02-04T00:08:52.395Z,24.48
2018-02-04T00:11:19.100Z,24.90
2018-02-04T00:13:45.716Z,23.85
2018-02-04T00:16:12.341Z,21.75
2018-02-04T00:18:38.959Z,21.30
2018-02-04T00:21:05.658Z,23.17
2018-02-04T00:23:32.338Z,21.00
2018-02-04T00:25:58.953Z,22.08
2018-02-04T00:28:25.586Z,21.75
2018-02-04T00:30:52.217Z,21.00
2018-02-04T00:33:18.825Z,19.75
2018-02-04T00:35:45.490Z,20.08
2018-02-04T00:38:12.105Z,18.92
2018-02-04T00:40:38.738Z,21.55
2018-02-04T00:43:05.359Z,21.90
2018-02-04T00:45:31.978Z,19.87
2018-02-04T00:47:58.601Z,18.77
2018-02-04T00:50:25.214Z,19.55
2018-02-04T00:52:51.866Z,18.73
2018-02-04T00:55:18.545Z,17.83
2018-02-04T00:57:45.165Z,18.33
2018-02-04T01:00:11.777Z,19.37
2018-02-04T01:02:38.421Z,17.87
2018-02-04T01:05:05.033Z,17.95
2018-02-04T01:07:31.740Z,19.25
2018-02-04T01:09:58.441Z,20.02
2018-02-04T01:12:25.069Z,19.05
2018-02-04T01:14:51.696Z,19.48
2018-02-04T01:17:18.326Z,18.05
2018-02-04T01:19:44.937Z,18.77
2018-02-04T01:22:11.638Z,18.87
2018-02-04T01:24:38.258Z,19.35
2018-02-04T01:27:04.881Z,19.80
2018-02-04T01:29:31.555Z,19.67
2018-02-04T01:31:58.169Z,21.12
2018-02-04T01:34:24.797Z,20.17
2018-02-04T01:36:51.414Z,20.98
2018-02-04T01:39:18.152Z,20.67
2018-02-04T01:41:44.857Z,22.65
2018-02-04T01:44:11.508Z,19.62
2018-02-04T01:46:38.162Z,21.12
2018-02-04T01:49:04.917Z,20.20
2018-02-04T01:51:31.554Z,21.17
2018-02-04T01:53:58.201Z,19.98
2018-02-04T01:56:24.836Z,21.83
2018-02-04T01:58:51.494Z,23.23
2018-02-04T02:01:18.195Z,23.80
2018-02-04T02:03:44.828Z,21.60
2018-02-04T02:06:11.578Z,20.40
2018-02-04T02:08:38.213Z,20.27
2018-02-04T02:11:04.849Z,21.83
2018-02-04T02:13:31.496Z,18.50
2018-02-04T02:15:58.126Z,19.90
2018-02-04T02:18:24.761Z,20.83
2018-02-04T02:20:51.414Z,20.30
2018-02-04T02:23:18.053Z,20.35
2018-02-04T02:25:44.690Z,20.48
2018-02-04T02:28:11.329Z,20.85
2018-02-04T02:30:37.966Z,20.92
2018-02-04T02:33:04.723Z,20.58
2018-02-04T02:35:31.436Z,20.98
2018-02-04T02:37:58.074Z,19.37
2018-02-04T02:40:24.845Z,20.50
2018-02-04T02:42:51.482Z,20.35
2018-02-04T02:45:18.121Z,20.50
2018-02-04T02:47:44.834Z,20.70
2018-02-04T02:50:11.477Z,22.20
2018-02-04T02:52:38.130Z,23.42
2018-02-04T02:55:04.770Z,22.05
2018-02-04T02:57:31.509Z,24.02
2018-02-04T02:59:58.153Z,21.27
2018-02-04T03:02:24.789Z,22.58
2018-02-04T03:04:51.427Z,23.23
2018-02-04T03:07:18.081Z,22.23
2018-02-04T03:09:44.720Z,23.60
2018-02-04T03:12:11.383Z,22.40
2018-02-04T03:14:38.086Z,24.15
2018-02-04T03:17:04.725Z,23.77
2018-02-04T03:19:31.375Z,23.65
2018-02-04T03:21:58.015Z,21.90
2018-02-04T03:24:24.654Z,23.60
2018-02-04T03:26:51.308Z,21.70
2018-02-04T03:29:17.946Z,20.88
2018-02-04T03:31:44.592Z,21.33
2018-02-04T03:34:11.244Z,22.40
2018-02-04T03:36:37.874Z,22.48
2018-02-04T03:39:04.514Z,20.98
2018-02-04T03:41:31.214Z,22.00
2018-02-04T03:43:57.871Z,21.42
2018-02-04T03:46:24.501Z,22.73
2018-02-04T03:48:51.145Z,23.67
2018-02-04T03:51:17.772Z,23.00
2018-02-04T03:53:44.531Z,21.92
2018-02-04T03:56:11.253Z,23.48
2018-02-04T03:58:37.997Z,22.62
2018-02-04T04:01:04.658Z,22.73
2018-02-04T04:03:31.298Z,24.02
2018-02-04T04:05:57.937Z,21.17
2018-02-04T04:08:24.589Z,23.55
2018-02-04T04:10:51.226Z,21.45
2018-02-04T04:13:17.941Z,22.85
2018-02-04T04:15:44.568Z,21.80
2018-02-04T04:18:11.227Z,21.62
2018-02-04T04:20:37.884Z,22.58
2018-02-04T04:23:04.517Z,22.83
2018-02-04T04:25:31.237Z,22.90
2018-02-04T04:27:57.874Z,21.58
2018-02-04T04:30:24.509Z,21.35
2018-02-04T04:32:51.152Z,22.42
2018-02-04T04:35:17.790Z,21.73
2018-02-04T04:37:44.421Z,22.05
2018-02-04T04:40:11.066Z,20.52
2018-02-04T04:49:56.411Z,20.27
2018-02-04T04:52:23.045Z,20.70
2018-02-04T04:54:49.710Z,22.08
2018-02-04T04:57:16.364Z,22.37
2018-02-04T04:59:43.068Z,22.45
2018-02-04T05:02:09.712Z,20.85
2018-02-04T05:04:36.418Z,23.92
2018-02-04T05:07:03.065Z,23.62
2018-02-04T05:09:29.713Z,22.50
2018-02-04T05:11:56.349Z,23.15
2018-02-04T05:14:22.984Z,20.70
2018-02-04T05:16:49.632Z,22.48
2018-02-04T05:19:16.274Z,23.73
2018-02-04T05:21:42.923Z,21.40
2018-02-04T06:25:09.089Z,25.37
2018-02-04T06:27:35.757Z,25.12
2018-02-04T06:30:02.473Z,25.55
2018-02-04T06:32:30.032Z,25.33
2018-02-04T06:34:57.214Z,24.85
2018-02-04T06:37:23.922Z,24.02
2018-02-04T06:39:50.664Z,25.35
2018-02-04T06:42:17.303Z,24.85
2018-02-04T06:44:43.948Z,24.95
2018-02-04T06:47:10.666Z,24.55
2018-02-04T06:49:37.318Z,23.75
2018-02-04T06:52:03.960Z,24.83
2018-02-04T06:54:30.593Z,27.83
2018-02-04T06:56:57.239Z,23.62
2018-02-04T06:59:23.869Z,22.95
2018-02-04T07:01:50.496Z,23.98
2018-02-04T07:04:17.149Z,22.27
2018-02-04T07:06:43.792Z,24.50
2018-02-04T07:09:10.437Z,25.48
2018-02-04T07:11:37.085Z,24.37
2018-02-04T07:14:03.721Z,23.50
2018-02-04T07:16:30.363Z,24.30
2018-02-04T07:18:57.017Z,24.27
2018-02-04T07:21:23.658Z,23.40
2018-02-04T07:23:50.359Z,23.75
2018-02-04T07:26:17.014Z,25.73
2018-02-04T07:28:43.738Z,23.58
2018-02-04T07:31:10.368Z,24.55
2018-02-04T07:33:37.136Z,24.67
2018-02-04T07:36:03.866Z,24.52
2018-02-04T07:38:30.496Z,21.67
2018-02-04T07:40:57.259Z,22.87
2018-02-04T07:43:23.893Z,23.35
2018-02-04T07:45:50.524Z,22.42
2018-02-04T07:48:17.174Z,22.50
2018-02-04T07:50:43.902Z,25.42
2018-02-04T07:53:10.532Z,22.20
2018-02-04T07:55:37.273Z,23.40
2018-02-04T07:58:03.905Z,20.50
2018-02-04T08:00:30.559Z,25.52
2018-02-04T08:02:57.189Z,24.45
2018-02-04T08:05:23.822Z,20.73
2018-02-04T08:07:50.594Z,24.05
2018-02-04T08:10:17.229Z,23.58
2018-02-04T08:12:43.870Z,25.45
2018-02-04T08:15:11.228Z,23.70
2018-02-04T08:17:37.872Z,25.58
2018-02-04T08:20:04.586Z,21.30
2018-02-04T08:22:31.232Z,23.10
2018-02-04T08:24:57.866Z,26.92
2018-02-04T08:27:24.613Z,25.70
2018-02-04T08:29:51.349Z,25.33
2018-02-04T08:32:18.106Z,25.02
2018-02-04T08:34:44.833Z,26.05
2018-02-04T08:37:11.487Z,26.75
2018-02-04T08:39:38.129Z,26.15
2018-02-04T08:42:04.848Z,26.17
2018-02-04T08:44:31.588Z,26.37
2018-02-04T08:46:58.237Z,29.17
2018-02-04T08:49:24.894Z,27.40
2018-02-04T08:51:51.527Z,27.75
2018-02-04T08:54:18.166Z,28.92
2018-02-04T08:56:44.817Z,27.02
2018-02-04T08:59:11.447Z,27.62
2018-02-04T09:01:38.208Z,27.40
2018-02-04T09:04:04.922Z,27.77
2018-02-04T09:06:31.558Z,27.83
2018-02-04T09:08:58.210Z,28.83
2018-02-04T09:11:24.841Z,33.55
2018-02-04T09:13:51.534Z,28.05
2018-02-04T09:16:18.332Z,27.67
2018-02-04T09:18:44.993Z,28.05
2018-02-04T09:21:11.852Z,31.17
2018-02-04T09:23:38.968Z,29.67
2018-02-04T09:26:06.015Z,26.95
2018-02-04T09:28:32.860Z,27.23
2018-02-04T09:30:59.804Z,30.75
2018-02-04T09:33:26.508Z,36.03
2018-02-04T09:35:53.285Z,31.83
2018-02-04T09:38:20.014Z,29.33
2018-02-04T09:40:46.874Z,28.58
2018-02-04T09:43:13.654Z,27.00
2018-02-04T09:45:40.305Z,29.17
2018-02-04T09:48:10.607Z,27.48
2018-02-04T09:50:38.140Z,23.95
2018-02-04T09:53:07.134Z,27.67
2018-02-04T10:00:45.484Z,27.17
2018-02-04T10:03:14.248Z,32.83
2018-02-04T10:05:41.594Z,25.45
2018-02-04T10:08:08.355Z,26.45
2018-02-04T10:10:37.002Z,31.92
2018-02-04T10:13:03.753Z,31.85
2018-02-04T10:15:30.420Z,27.25
2018-02-04T10:17:57.076Z,26.00
2018-02-04T10:20:23.820Z,32.45
2018-02-04T10:22:50.477Z,27.70
2018-02-04T10:25:17.124Z,27.87
2018-02-04T10:27:44.715Z,27.17
2018-02-04T10:30:11.351Z,30.65
2018-02-04T10:32:39.678Z,25.83
2018-02-04T10:35:06.401Z,26.02
2018-02-04T10:37:33.034Z,26.83
2018-02-04T10:39:59.677Z,25.75
2018-02-04T10:42:26.308Z,24.20
2018-02-04T10:44:53.062Z,27.98
2018-02-04T10:47:19.700Z,25.75
2018-02-04T10:49:46.345Z,25.20
2018-02-04T10:52:14.020Z,24.12
2018-02-04T10:54:40.655Z,25.92
2018-02-04T10:57:07.291Z,24.85
2018-02-04T10:59:33.948Z,27.35
2018-02-04T11:02:00.582Z,23.77
2018-02-04T11:04:27.305Z,24.92
2018-02-04T11:06:54.042Z,26.30
2018-02-04T11:09:20.786Z,24.55
2018-02-04T11:11:47.443Z,25.92
2018-02-04T11:14:14.088Z,26.37
2018-02-04T11:16:40.806Z,20.52
2018-02-04T11:19:07.432Z,24.37
2018-02-04T11:21:34.086Z,26.25
2018-02-04T11:24:00.722Z,23.30
2018-02-04T11:26:27.376Z,24.35
2018-02-04T11:28:54.101Z,24.25
2018-02-04T11:31:20.745Z,24.30
2018-02-04T11:33:47.385Z,24.27
2018-02-04T11:36:14.040Z,21.50
2018-02-04T11:38:40.762Z,23.92
2018-02-04T11:41:07.416Z,20.35
2018-02-04T11:43:34.121Z,22.15
2018-02-04T11:46:00.762Z,23.33
2018-02-04T11:48:27.400Z,20.42
2018-02-04T11:50:54.058Z,19.45
2018-02-04T11:53:20.693Z,23.23
2018-02-04T11:55:47.320Z,21.50
2018-02-04T11:58:13.996Z,20.45
2018-02-04T12:00:40.629Z,20.65
2018-02-04T12:03:07.371Z,21.08
2018-02-04T12:05:34.025Z,21.10
2018-02-04T12:08:00.727Z,21.05
2018-02-04T12:10:27.356Z,23.30
2018-02-04T12:12:54.010Z,22.87
2018-02-04T12:15:20.641Z,20.33
2018-02-04T12:17:47.387Z,18.80
2018-02-04T12:20:14.128Z,21.95
2018-02-04T12:22:40.770Z,18.87
2018-02-04T12:25:07.408Z,19.98
2018-02-04T12:27:34.061Z,21.67
2018-02-04T12:30:00.703Z,21.20
2018-02-04T12:32:27.451Z,22.10
2018-02-04T12:34:54.093Z,26.12
2018-02-04T12:37:20.813Z,24.67
2018-02-04T12:39:47.468Z,30.95
2018-02-04T12:42:14.116Z,29.20
2018-02-04T12:44:40.790Z,22.58
2018-02-04T12:47:07.473Z,21.15
2018-02-04T12:49:34.113Z,19.80
2018-02-04T12:52:00.765Z,18.30
2018-02-04T12:54:27.630Z,22.52
2018-02-04T12:56:54.273Z,16.77
2018-02-04T12:59:20.992Z,20.35
2018-02-04T13:01:47.642Z,17.83
2018-02-04T13:04:14.280Z,19.70
2018-02-04T13:06:40.933Z,21.87
2018-02-04T13:09:07.577Z,23.20
2018-02-04T13:11:34.290Z,23.33
2018-02-04T13:14:00.949Z,19.73
2018-02-04T13:16:27.589Z,18.58
2018-02-04T13:18:54.294Z,19.75
2018-02-04T13:21:20.960Z,17.50
2018-02-04T13:23:47.682Z,20.10
2018-02-04T13:26:14.315Z,17.35
2018-02-04T13:28:40.960Z,19.70
2018-02-04T13:31:07.598Z,17.42
2018-02-04T13:33:34.250Z,18.37
2018-02-04T13:36:00.886Z,24.37
2018-02-04T13:38:27.619Z,22.67
2018-02-04T13:40:54.261Z,21.98
2018-02-04T13:43:20.897Z,22.67
2018-02-04T13:45:47.624Z,23.45
2018-02-04T13:48:14.273Z,23.38
2018-02-04T13:50:40.924Z,27.33
2018-02-04T13:53:07.649Z,24.80
2018-02-04T13:55:34.290Z,28.40
2018-02-04T13:58:00.943Z,25.48
2018-02-04T14:00:27.578Z,26.12
2018-02-04T14:02:54.219Z,23.45
2018-02-04T14:05:20.865Z,23.17
2018-02-04T14:07:47.502Z,26.42
2018-02-04T14:10:14.128Z,25.75
2018-02-04T14:12:40.778Z,26.70
2018-02-04T14:15:07.404Z,26.58
2018-02-04T14:17:34.059Z,29.65
2018-02-04T14:20:00.713Z,26.77
2018-02-04T14:22:27.397Z,27.20
2018-02-04T14:24:54.055Z,25.90
2018-02-04T14:27:20.803Z,24.77
2018-02-04T14:29:47.535Z,23.23
2018-02-04T14:32:14.180Z,24.42
2018-02-04T14:34:40.813Z,24.85
2018-02-04T14:37:07.450Z,25.35
2018-02-04T14:39:34.220Z,24.40
2018-02-04T14:42:00.858Z,24.60
2018-02-04T14:44:27.600Z,25.77
2018-02-04T14:46:54.317Z,24.35
2018-02-04T14:49:21.064Z,25.62
2018-02-04T14:51:48.158Z,26.67
2018-02-04T14:54:14.920Z,25.30
2018-02-04T14:56:41.615Z,27.15
2018-02-04T14:59:08.246Z,25.20
2018-02-04T15:01:34.897Z,27.98
2018-02-04T15:04:01.618Z,25.83
2018-02-04T15:06:28.253Z,26.65
2018-02-04T15:08:55.011Z,39.90
2018-02-04T15:11:21.640Z,32.80
2018-02-04T15:13:48.386Z,29.42
2018-02-04T15:16:15.038Z,28.67
2018-02-04T15:18:41.673Z,27.37
2018-02-04T15:21:08.398Z,29.45
2018-02-04T15:23:35.025Z,29.02
2018-02-04T15:26:01.695Z,29.83
2018-02-04T15:28:28.418Z,30.10
2018-02-04T15:30:55.061Z,28.58
2018-02-04T15:33:21.697Z,29.63
2018-02-04T15:35:48.350Z,29.52
2018-02-04T15:38:14.977Z,29.95
2018-02-04T15:40:41.618Z,28.65
2018-02-04T15:43:08.349Z,32.13
2018-02-04T15:45:34.980Z,27.08
2018-02-04T15:48:01.753Z,26.65
2018-02-04T15:50:28.405Z,23.62
2018-02-04T15:52:55.038Z,28.83
2018-02-04T15:55:21.771Z,25.15
2018-02-04T15:57:48.406Z,26.92
2018-02-04T16:00:15.042Z,27.48
2018-02-04T16:02:41.772Z,32.17
2018-02-04T16:05:08.430Z,26.45
2018-02-04T16:07:35.153Z,27.00
2018-02-04T16:10:01.797Z,29.00
2018-02-04T16:12:28.542Z,29.23
2018-02-04T16:14:55.177Z,29.73
2018-02-04T16:17:21.918Z,29.45
2018-02-04T16:19:48.564Z,29.70
2018-02-04T16:22:15.212Z,33.78
2018-02-04T16:24:41.853Z,30.80
2018-02-04T16:27:08.490Z,24.05
2018-02-04T16:29:35.130Z,25.42
2018-02-04T16:32:01.857Z,25.65
2018-02-04T16:34:28.496Z,24.08
2018-02-04T16:36:55.124Z,23.10
2018-02-04T16:39:21.787Z,23.73
2018-02-04T16:41:48.418Z,25.17
2018-02-04T16:44:15.056Z,23.48
2018-02-04T16:46:41.706Z,21.70
2018-02-04T16:49:08.429Z,23.35
2018-02-04T16:51:35.056Z,27.02
2018-02-04T16:54:01.696Z,24.55
2018-02-04T16:56:30.274Z,24.63
2018-02-04T16:58:56.918Z,28.12
2018-02-04T17:01:23.558Z,20.42
2018-02-04T17:03:50.201Z,19.23
2018-02-04T17:06:16.837Z,23.60
2018-02-04T17:08:43.585Z,20.98
2018-02-04T17:11:10.217Z,22.02
2018-02-04T17:13:36.860Z,18.08
2018-02-04T17:16:03.509Z,18.58
2018-02-04T17:18:30.249Z,19.80
2018-02-04T17:20:56.880Z,21.67
2018-02-04T17:23:23.525Z,17.40
2018-02-04T17:25:50.286Z,17.55
2018-02-04T17:28:16.921Z,20.05
2018-02-04T17:30:43.658Z,17.95
2018-02-04T17:33:10.298Z,17.02
2018-02-04T17:35:36.928Z,23.08
2018-02-04T17:38:03.669Z,20.65
2018-02-04T17:40:30.322Z,16.15
2018-02-04T17:42:56.952Z,18.10
2018-02-04T17:45:23.605Z,24.65
2018-02-04T17:47:50.237Z,17.48
2018-02-04T17:50:16.864Z,20.52
2018-02-04T17:52:43.544Z,22.02
2018-02-04T17:55:10.184Z,17.77
2018-02-04T17:57:36.814Z,19.42
2018-02-04T18:00:03.542Z,21.65
2018-02-04T18:02:30.181Z,19.40
2018-02-04T18:04:56.814Z,19.70
2018-02-04T18:07:23.540Z,25.27
2018-02-04T18:09:50.281Z,22.98
2018-02-04T18:12:16.929Z,23.58
2018-02-04T18:14:43.614Z,17.50
2018-02-04T18:17:10.249Z,21.67
2018-02-04T18:19:36.902Z,20.12
2018-02-04T18:22:03.537Z,21.90
2018-02-04T18:24:30.185Z,17.48
2018-02-04T18:26:56.818Z,15.52
2018-02-04T18:29:23.519Z,15.23
2018-02-04T18:31:50.241Z,18.75
2018-02-04T18:34:16.882Z,16.10
2018-02-04T18:36:43.620Z,18.58
2018-02-04T18:39:10.267Z,18.37
2018-02-04T18:41:36.999Z,20.70
2018-02-04T18:44:03.637Z,22.98
2018-02-04T18:46:30.338Z,21.80
2018-02-04T18:48:56.971Z,16.23
2018-02-04T18:51:23.605Z,16.08
2018-02-04T18:53:50.253Z,16.08
2018-02-04T18:56:16.958Z,15.80
2018-02-04T18:58:43.588Z,16.17
2018-02-04T19:01:10.317Z,17.77
2018-02-04T19:03:37.061Z,16.52
2018-02-04T19:06:03.819Z,20.30
2018-02-04T19:08:30.546Z,16.45
2018-02-04T19:10:57.186Z,16.35
2018-02-04T19:13:23.822Z,16.70
2018-02-04T19:15:50.471Z,17.45
2018-02-04T19:18:17.096Z,16.02
2018-02-04T19:20:43.729Z,19.58
2018-02-04T19:23:10.416Z,16.90
2018-02-04T19:25:37.078Z,16.60
2018-02-04T19:28:03.714Z,16.35
2018-02-04T19:30:30.416Z,16.92
2018-02-04T19:32:57.141Z,18.52
2018-02-04T19:35:23.777Z,19.00
2018-02-04T19:37:50.425Z,17.50
2018-02-04T19:40:17.161Z,17.25
2018-02-04T19:42:43.805Z,17.58
2018-02-04T19:45:10.451Z,16.17
2018-02-04T19:47:37.076Z,16.62
2018-02-04T19:50:03.711Z,17.30
2018-02-04T19:52:30.372Z,16.98
2018-02-04T19:54:57.115Z,22.02
2018-02-04T19:57:23.745Z,25.45
2018-02-04T19:59:50.495Z,26.62
2018-02-04T20:02:17.217Z,21.77
2018-02-04T20:04:43.875Z,22.35
2018-02-04T20:07:10.500Z,16.85
2018-02-04T20:09:37.138Z,17.17
2018-02-04T20:12:03.792Z,16.70
2018-02-04T20:14:30.426Z,16.85
2018-02-04T20:16:57.177Z,16.33
2018-02-04T20:19:23.824Z,17.58
2018-02-04T20:21:50.534Z,18.37
2018-02-04T20:24:17.282Z,18.05
2018-02-04T20:26:44.038Z,16.33
2018-02-04T20:29:10.673Z,17.55
2018-02-04T20:31:37.316Z,15.85
2018-02-04T20:34:09.874Z,17.12
2018-02-04T20:36:36.618Z,16.37
2018-02-04T20:39:03.269Z,16.10
2018-02-04T20:41:29.912Z,15.82
2018-02-04T20:43:56.655Z,17.00
2018-02-04T20:46:23.294Z,17.35
2018-02-04T20:48:50.036Z,18.12
2018-02-04T20:51:16.676Z,17.95
2018-02-04T20:53:43.313Z,18.92
2018-02-04T20:56:09.970Z,18.90
2018-02-04T20:58:36.600Z,19.42
2018-02-04T21:01:03.258Z,18.00
2018-02-04T21:03:29.907Z,19.62
2018-02-04T21:05:56.596Z,20.08
2018-02-04T21:08:23.332Z,18.67
2018-02-04T21:10:49.966Z,18.55
2018-02-04T21:13:16.603Z,16.83
2018-02-04T21:15:43.349Z,16.70
2018-02-04T21:18:10.011Z,17.40
2018-02-04T21:20:36.741Z,16.35
2018-02-04T21:23:03.394Z,15.52
2018-02-04T21:25:30.037Z,17.25
2018-02-04T21:27:56.757Z,15.10
2018-02-04T21:30:23.493Z,16.85
2018-02-04T21:32:50.237Z,16.65
2018-02-04T21:35:16.872Z,16.23
2018-02-04T21:37:43.620Z,16.37
2018-02-04T21:40:10.381Z,18.55
2018-02-04T21:42:37.039Z,16.25
2018-02-04T21:45:03.678Z,17.90
2018-02-04T21:47:30.321Z,17.50
2018-02-04T21:49:56.969Z,17.50
2018-02-04T21:52:23.676Z,17.25
2018-02-04T21:54:50.324Z,17.70
2018-02-04T21:57:17.048Z,18.50
2018-02-04T21:59:43.786Z,17.52
2018-02-04T22:02:10.439Z,18.05
2018-02-04T22:04:37.152Z,18.42
2018-02-04T22:07:03.801Z,18.50
2018-02-04T22:09:30.438Z,19.83
2018-02-04T22:11:57.065Z,18.25
2018-02-04T22:14:24.749Z,18.83
2018-02-04T22:16:51.389Z,19.98
2018-02-04T22:19:18.017Z,17.45
2018-02-04T22:21:44.665Z,19.80
2018-02-04T22:24:11.300Z,19.10
2018-02-04T22:26:38.043Z,19.80
2018-02-04T22:29:04.695Z,19.50
2018-02-04T22:31:31.330Z,19.80
2018-02-04T22:33:58.057Z,19.02
2018-02-04T22:36:24.696Z,17.67
2018-02-04T22:38:51.320Z,19.58
2018-02-04T22:41:17.970Z,18.95
2018-02-04T22:43:44.600Z,17.98
2018-02-04T22:46:11.233Z,19.60
2018-02-04T22:48:37.883Z,18.65
2018-02-04T22:51:04.516Z,17.87
2018-02-04T22:53:31.145Z,18.75
2018-02-04T22:55:57.788Z,17.33
2018-02-04T22:58:24.424Z,17.95
2018-02-04T23:00:51.209Z,19.98
2018-02-04T23:03:17.838Z,17.42
2018-02-04T23:05:44.473Z,18.00
2018-02-04T23:08:11.125Z,16.65
2018-02-04T23:10:37.927Z,18.15
2018-02-04T23:13:04.593Z,16.80
2018-02-04T23:15:31.239Z,16.30
2018-02-04T23:17:57.869Z,17.95
2018-02-04T23:20:24.559Z,16.20
2018-02-04T23:22:51.268Z,16.33
2018-02-04T23:25:17.906Z,16.67
2018-02-04T23:27:44.548Z,17.87
2018-02-04T23:30:11.265Z,16.48
2018-02-04T23:32:37.896Z,18.10
2018-02-04T23:35:04.669Z,18.55
2018-02-04T23:37:31.302Z,17.52
2018-02-04T23:39:57.932Z,17.02
2018-02-04T23:42:24.572Z,17.45
2018-02-04T23:44:51.224Z,18.77
2018-02-04T23:47:17.860Z,18.30
2018-02-04T23:49:44.513Z,17.15
2018-02-04T23:52:11.224Z,17.42
2018-02-04T23:54:37.857Z,16.67
2018-02-04T23:57:04.505Z,18.33
2018-02-04T23:59:31.136Z,16.50
